Time;durP1;ratioP1;P1;durP2;ratioP2;P2;SDS_P1;SDS_P2;PMS_P1;PMS_P2;Temp;Humidity;BMP_temperature;BMP_pressure;BME280_temperature;BME280_humidity;BME280_pressure;Samples;Min_cycle;Max_cycle;Signal;HPM_P1;HPM_P2
2022/01/27 00:02:40;;;;;;;50.20;25.15;;;;;;;-6.39;100.00;99495.00;1644458;87;21141;-70
2022/01/27 00:07:33;;;;;;;52.00;27.02;;;;;;;-6.37;100.00;99485.70;1630504;88;21018;-68
2022/01/27 00:10:20;;;;;;;59.55;28.32;;;;;;;-6.37;100.00;99487.00;1629617;88;21383;-69
2022/01/27 00:12:34;;;;;;;72.85;29.98;;;;;;;-6.36;100.00;99492.58;1627505;87;20965;-69
2022/01/27 00:15:12;;;;;;;72.90;34.35;;;;;;;-6.38;100.00;99490.11;1628860;88;21142;-71
2022/01/27 00:17:32;;;;;;;76.55;36.93;;;;;;;-6.40;100.00;99495.95;1644487;87;20953;-69
2022/01/27 00:19:59;;;;;;;85.55;38.33;;;;;;;-6.45;100.00;99499.48;1646231;87;20905;-70
2022/01/27 00:22:27;;;;;;;72.00;34.15;;;;;;;-6.48;100.00;99497.99;1647199;86;20933;-70
2022/01/27 00:24:54;;;;;;;;;;;;;;;-6.49;100.00;99488.53;1630284;88;21047;-70
2022/01/27 00:27:20;;;;;;;67.72;30.82;;;;;;;-6.53;100.00;99491.08;1656155;86;21099;-70
2022/01/27 00:29:47;;;;;;;65.90;32.15;;;;;;;-6.62;100.00;99484.11;1657173;86;20957;-70
2022/01/27 00:32:13;;;;;;;57.38;31.50;;;;;;;-6.75;100.00;99471.41;1657719;86;21443;-69
2022/01/27 00:34:40;;;;;;;56.48;31.37;;;;;;;-6.90;100.00;99474.16;1657357;86;20916;-69
2022/01/27 00:37:06;;;;;;;68.37;30.02;;;;;;;-7.05;100.00;99468.58;1657824;86;20936;-69
2022/01/27 00:39:33;;;;;;;62.08;29.32;;;;;;;-7.17;100.00;99464.02;1657451;86;21140;-70
2022/01/27 00:41:59;;;;;;;50.43;27.90;;;;;;;-7.28;100.00;99460.75;1657814;86;20953;-70
2022/01/27 00:44:26;;;;;;;60.52;31.33;;;;;;;-7.37;100.00;99459.34;1657118;85;20957;-70
2022/01/27 00:46:53;;;;;;;64.80;32.80;;;;;;;-7.48;100.00;99448.23;1657600;86;20909;-69
2022/01/27 00:49:19;;;;;;;57.88;29.95;;;;;;;-7.58;100.00;99452.98;1654294;86;20964;-68
2022/01/27 00:51:47;;;;;;;54.23;28.40;;;;;;;-7.63;100.00;99448.67;1657689;86;21301;-69
2022/01/27 00:54:26;;;;;;;62.70;32.35;;;;;;;-7.75;100.00;99444.58;1657654;86;21052;-70
2022/01/27 00:56:50;;;;;;;61.45;29.87;;;;;;;-7.82;100.00;99444.30;1653456;86;21471;-68
2022/01/27 01:01:44;;;;;;;54.60;28.77;;;;;;;-7.99;100.00;99445.00;1658043;86;20960;-69
2022/01/27 01:04:10;;;;;;;53.23;28.00;;;;;;;-8.05;100.00;99446.86;1657319;85;21153;-68
2022/01/27 01:06:46;;;;;;;59.67;27.30;;;;;;;-8.11;100.00;99439.09;1657995;86;27524;-70
2022/01/27 01:19:48;;;;;;;58.30;29.27;;;;;;;-8.30;100.00;99420.40;1657727;86;20994;-68
2022/01/27 01:29:24;;;;;;;59.00;30.97;;;;;;;-8.29;100.00;99417.31;1655094;86;20948;-70
2022/01/27 01:32:48;;;;;;;112.57;39.38;;;;;;;-8.19;100.00;99396.81;1628511;87;26960;-69
2022/01/27 01:35:11;;;;;;;132.52;48.70;;;;;;;-8.21;100.00;99394.81;1645001;87;20980;-71
2022/01/27 01:37:41;;;;;;;135.30;53.15;;;;;;;-8.21;100.00;99390.09;1646320;87;20949;-73
2022/01/27 01:40:14;;;;;;;;;;;;;;;-8.15;100.00;99384.35;1648127;87;21001;-70
2022/01/27 01:42:41;;;;;;;137.40;46.75;;;;;;;-8.10;100.00;99385.25;1646208;87;21161;-69
2022/01/27 01:45:11;;;;;;;105.10;40.03;;;;;;;-8.07;100.00;99383.17;1645917;87;20957;-70
2022/01/27 01:47:38;;;;;;;121.95;47.58;;;;;;;-8.04;100.00;99391.19;1646015;87;20953;-74
2022/01/27 01:50:07;;;;;;;92.65;38.15;;;;;;;-7.99;100.00;99387.20;1645837;87;20905;-69
2022/01/27 01:52:35;;;;;;;99.20;42.93;;;;;;;-7.93;100.00;99383.72;1644686;87;20997;-70
2022/01/27 01:55:03;;;;;;;98.45;45.03;;;;;;;-7.88;100.00;99386.24;1646004;87;21140;-69
2022/01/27 01:57:30;;;;;;;94.70;38.40;;;;;;;-7.83;100.00;99383.22;1646151;87;20938;-70
2022/01/27 01:59:57;;;;;;;73.20;32.05;;;;;;;-7.82;100.00;99381.76;1645984;87;20973;-68
2022/01/27 02:02:25;;;;;;;62.78;29.02;;;;;;;-7.72;100.00;99384.34;1604978;87;20992;-69
2022/01/27 02:04:55;;;;;;;54.77;24.95;;;;;;;-7.59;100.00;99391.40;1631129;87;20969;-70
2022/01/27 02:10:11;;;;;;;83.22;34.65;;;;;;;-7.42;100.00;99375.50;1646006;87;21464;-70
2022/01/27 02:18:07;;;;;;;41.92;21.75;;;;;;;-7.26;100.00;99377.48;1630149;87;20937;-70
2022/01/27 02:20:29;;;;;;;41.00;21.65;;;;;;;-7.21;100.00;99378.36;1645152;85;21238;-69
2022/01/27 02:22:56;;;;;;;35.88;19.90;;;;;;;-7.22;100.00;99373.63;1646120;87;20996;-70
2022/01/27 02:25:22;;;;;;;27.07;16.97;;;;;;;-7.19;100.00;99369.91;1626901;87;20944;-70
2022/01/27 02:27:54;;;;;;;39.70;20.00;;;;;;;-7.17;100.00;99362.77;1654193;86;20968;-70
2022/01/27 02:30:22;;;;;;;39.95;21.87;;;;;;;-7.14;100.00;99362.47;1657555;86;20932;-69
2022/01/27 02:32:52;;;;;;;48.65;27.17;;;;;;;-7.12;100.00;99357.45;1658043;85;21141;-70
2022/01/27 02:35:24;;;;;;;30.27;18.37;;;;;;;-7.15;100.00;99355.63;1658281;86;20980;-70
2022/01/27 02:37:51;;;;;;;58.25;27.32;;;;;;;-7.18;100.00;99345.00;1657431;86;20913;-70
2022/01/27 02:40:35;;;;;;;42.05;22.58;;;;;;;-7.25;100.00;99342.63;1657874;86;20940;-71
2022/01/27 02:43:03;;;;;;;44.35;22.45;;;;;;;-7.28;100.00;99352.52;1656623;86;20972;-69
2022/01/27 02:46:01;;;;;;;55.38;24.98;;;;;;;-7.30;100.00;99355.25;1657928;86;22033;-70
2022/01/27 02:48:28;;;;;;;41.90;21.23;;;;;;;-7.28;100.00;99357.23;1658715;86;20964;-70
2022/01/27 02:50:55;;;;;;;47.53;23.50;;;;;;;-7.23;100.00;99358.93;1657823;86;20921;-70
2022/01/27 02:53:22;;;;;;;54.10;24.07;;;;;;;-7.22;100.00;99354.56;1657970;86;20913;-70
2022/01/27 02:55:49;;;;;;;54.33;24.07;;;;;;;-7.21;100.00;99355.70;1657636;86;20884;-70
2022/01/27 02:58:16;;;;;;;54.93;26.33;;;;;;;-7.21;100.00;99344.45;1657877;86;21115;-70
2022/01/27 03:00:43;;;;;;;48.63;26.20;;;;;;;-7.20;100.00;99345.63;1657286;86;20905;-70
2022/01/27 03:03:09;;;;;;;50.48;25.00;;;;;;;-7.20;100.00;99342.17;1657891;86;20944;-69
2022/01/27 03:05:36;;;;;;;54.05;23.80;;;;;;;-7.19;100.00;99332.09;1657842;86;20980;-69
2022/01/27 03:08:04;;;;;;;64.05;25.55;;;;;;;-7.17;100.00;99331.47;1636157;86;20964;-69
2022/01/27 03:10:34;;;;;;;49.15;24.85;;;;;;;-7.14;100.00;99328.07;1657939;86;21161;-69
2022/01/27 03:13:00;;;;;;;39.03;22.35;;;;;;;-7.15;100.00;99323.83;1657974;86;20960;-70
2022/01/27 03:15:29;;;;;;;43.92;23.70;;;;;;;-7.18;100.00;99316.31;1657834;86;21010;-69
2022/01/27 03:17:55;;;;;;;50.38;25.10;;;;;;;-7.18;100.00;99323.29;1658063;86;20928;-69
2022/01/27 03:20:22;;;;;;;51.60;21.73;;;;;;;-7.19;100.00;99327.69;1657913;86;20940;-70
2022/01/27 03:22:49;;;;;;;30.95;18.98;;;;;;;-7.17;100.00;99332.77;1658208;86;21180;-68
2022/01/27 03:25:16;;;;;;;35.75;18.55;;;;;;;-7.20;100.00;99323.45;1657791;86;20908;-70
2022/01/27 03:27:46;;;;;;;39.58;18.85;;;;;;;-7.24;100.00;99327.31;1657827;86;20912;-68
2022/01/27 03:30:12;;;;;;;33.90;19.98;;;;;;;-7.33;100.00;99318.55;1657506;86;21017;-71
2022/01/27 03:32:39;;;;;;;37.83;19.70;;;;;;;-7.41;100.00;99318.47;1638391;86;20977;-70
2022/01/27 03:35:06;;;;;;;41.85;21.52;;;;;;;-7.45;100.00;99317.59;1658342;86;21143;-69
2022/01/27 03:37:33;;;;;;;35.30;20.57;;;;;;;-7.46;100.00;99319.88;1657821;86;20908;-70
2022/01/27 03:40:00;;;;;;;52.03;24.00;;;;;;;-7.46;100.00;99315.95;1657761;86;20912;-70
2022/01/27 03:42:27;;;;;;;48.58;22.77;;;;;;;-7.45;100.00;99315.80;1658022;86;20964;-67
2022/01/27 03:44:54;;;;;;;55.20;27.03;;;;;;;-7.42;100.00;99315.98;1658194;86;20920;-69
2022/01/27 03:47:20;;;;;;;55.65;27.67;;;;;;;-7.39;100.00;99316.53;1658061;86;21159;-68
2022/01/27 03:49:47;;;;;;;46.08;24.80;;;;;;;-7.32;100.00;99308.97;1657720;86;20880;-70
2022/01/27 03:52:13;;;;;;;59.13;30.25;;;;;;;-7.27;100.00;99306.73;1636048;86;20937;-70
2022/01/27 03:54:40;;;;;;;60.73;29.23;;;;;;;-7.22;100.00;99308.42;1657791;86;20929;-68
2022/01/27 03:57:07;;;;;;;51.98;27.82;;;;;;;-7.19;100.00;99309.44;1659554;86;20984;-68
2022/01/27 03:59:33;;;;;;;45.58;24.45;;;;;;;-7.11;100.00;99305.59;1657965;86;21801;-70
2022/01/27 04:02:03;;;;;;;45.45;21.93;;;;;;;-7.03;100.00;99305.35;1679260;85;20955;-70
2022/01/27 04:04:29;;;;;;;;;;;;;;;-6.96;100.00;99309.02;1665248;85;21664;-70
2022/01/27 04:06:57;;;;;;;31.00;19.87;;;;;;;-6.93;100.00;99300.42;1660886;86;20153;-68
2022/01/27 04:09:24;;;;;;;44.15;21.42;;;;;;;-6.91;100.00;99303.72;1646480;86;21455;-68
2022/01/27 04:11:51;;;;;;;41.08;19.85;;;;;;;-6.87;100.00;99299.01;1661105;86;21111;-69
2022/01/27 04:14:18;;;;;;;48.92;23.07;;;;;;;-6.86;100.00;99294.11;1659273;86;20952;-73
2022/01/27 04:16:45;;;;;;;35.48;20.40;;;;;;;-6.84;100.00;99286.95;1659475;86;20957;-70
2022/01/27 04:19:12;;;;;;;35.43;20.95;;;;;;;-6.82;100.00;99288.94;1660982;86;20982;-69
2022/01/27 04:21:38;;;;;;;30.50;18.45;;;;;;;-6.80;100.00;99283.09;1634074;86;20929;-68
2022/01/27 04:24:06;;;;;;;30.75;19.92;;;;;;;-6.78;100.00;99281.16;1662072;85;21092;-68
2022/01/27 04:26:46;;;;;;;43.97;22.60;;;;;;;-6.77;100.00;99278.06;1627195;86;20994;-71
2022/01/27 04:29:02;;;;;;;40.63;21.57;;;;;;;-6.75;100.00;99277.43;1633584;87;20883;-70
2022/01/27 04:31:29;;;;;;;47.65;23.42;;;;;;;-6.73;100.00;99280.22;1636827;87;20899;-69
2022/01/27 04:33:56;;;;;;;37.85;20.57;;;;;;;-6.71;100.00;99276.98;1630162;87;20970;-70
2022/01/27 04:36:29;;;;;;;59.63;29.60;;;;;;;-6.69;100.00;99282.88;1625581;87;21115;-70
2022/01/27 04:39:00;;;;;;;;;;;;;;;-6.66;100.00;99277.84;1626389;87;20946;-69
2022/01/27 04:41:43;;;;;;;41.70;22.90;;;;;;;-6.65;100.00;99273.44;1628696;87;20429;-70
2022/01/27 04:46:44;;;;;;;53.95;27.20;;;;;;;-6.64;100.00;99264.13;1633262;87;20958;-69
2022/01/27 04:49:07;;;;;;;58.25;24.90;;;;;;;-6.61;100.00;99269.53;1628762;87;21107;-69
2022/01/27 04:51:35;;;;;;;44.67;24.52;;;;;;;-6.60;100.00;99269.39;1602066;88;20954;-69
2022/01/27 04:54:11;;;;;;;51.15;28.10;;;;;;;-6.58;100.00;99267.46;1627639;88;20922;-68
2022/01/27 04:56:35;;;;;;;57.23;27.87;;;;;;;-6.56;100.00;99255.08;1640745;87;20891;-69
2022/01/27 04:59:06;;;;;;;40.80;22.73;;;;;;;-6.54;100.00;99261.44;1583867;89;20953;-70
2022/01/27 05:01:41;;;;;;;34.85;20.80;;;;;;;-6.51;100.00;99252.83;1601398;88;21959;-69
2022/01/27 05:04:07;;;;;;;38.35;20.62;;;;;;;-6.50;100.00;99254.95;1626479;87;20973;-69
2022/01/27 05:06:30;;;;;;;37.30;21.95;;;;;;;-6.46;100.00;99251.08;1636463;87;21496;-70
2022/01/27 05:08:56;;;;;;;40.28;23.35;;;;;;;-6.41;100.00;99251.93;1607083;87;20957;-70
2022/01/27 05:11:28;;;;;;;64.75;38.00;;;;;;;-6.40;100.00;99243.11;1582382;88;20994;-68
2022/01/27 05:14:01;;;;;;;49.20;27.32;;;;;;;-6.38;100.00;99239.37;1634284;87;21800;-69
2022/01/27 05:16:20;;;;;;;53.98;27.65;;;;;;;-6.35;100.00;99239.06;1611726;87;21527;-68
2022/01/27 05:18:47;;;;;;;55.45;28.55;;;;;;;-6.33;100.00;99238.42;1622564;88;20958;-69
2022/01/27 05:21:13;;;;;;;52.05;28.83;;;;;;;-6.29;100.00;99238.95;1622911;88;21480;-68
2022/01/27 05:23:40;;;;;;;54.75;24.90;;;;;;;-6.28;100.00;99237.48;1622515;88;21520;-69
2022/01/27 05:26:06;;;;;;;80.55;40.75;;;;;;;-6.27;100.00;99236.52;1622828;88;21496;-67
2022/01/27 05:28:33;;;;;;;65.42;31.33;;;;;;;-6.26;100.00;99245.98;1643767;85;20866;-69
2022/01/27 05:31:01;;;;;;;65.95;32.55;;;;;;;-6.23;100.00;99244.05;1658129;86;21478;-68
2022/01/27 05:33:28;;;;;;;;;;;;;;;-6.21;100.00;99244.22;1660786;86;20928;-68
2022/01/27 05:35:55;;;;;;;83.82;45.35;;;;;;;-6.21;100.00;99245.53;1657908;85;20435;-69
2022/01/27 05:38:22;;;;;;;85.40;39.08;;;;;;;-6.20;100.00;99239.81;1627767;88;21095;-67
2022/01/27 05:40:48;;;;;;;63.95;33.25;;;;;;;-6.20;100.00;99235.41;1610721;88;20888;-67
2022/01/27 05:43:15;;;;;;;64.03;29.92;;;;;;;-6.18;100.00;99230.84;1658281;85;20981;-69
2022/01/27 05:45:42;;;;;;;74.27;38.83;;;;;;;-6.17;100.00;99230.35;1664402;85;21062;-69
2022/01/27 05:48:08;;;;;;;54.13;26.82;;;;;;;-6.14;100.00;99232.68;1661741;85;20934;-68
2022/01/27 05:50:35;;;;;;;60.38;33.15;;;;;;;-6.12;100.00;99225.52;1682876;85;21768;-66
2022/01/27 05:53:03;;;;;;;87.05;44.53;;;;;;;-6.09;100.00;99225.20;1686611;85;21585;-68
2022/01/27 05:55:29;;;;;;;62.08;31.35;;;;;;;-6.06;100.00;99223.08;1680536;85;20960;-69
2022/01/27 05:57:56;;;;;;;46.18;23.70;;;;;;;-6.04;100.00;99226.86;1657485;86;20976;-68
2022/01/27 06:00:22;;;;;;;67.60;34.08;;;;;;;-6.02;100.00;99227.52;1669407;85;20959;-68
2022/01/27 06:02:49;;;;;;;65.22;34.58;;;;;;;-5.98;100.00;99230.63;1659404;85;21503;-67
2022/01/27 06:05:16;;;;;;;55.78;31.95;;;;;;;-5.95;100.00;99225.93;1657778;86;20961;-70
2022/01/27 06:07:43;;;;;;;55.33;28.80;;;;;;;-5.90;100.00;99217.10;1654244;86;20911;-70
2022/01/27 06:10:10;;;;;;;60.52;30.55;;;;;;;-5.83;100.00;99215.50;1652592;86;21520;-67
2022/01/27 06:12:53;;;;;;;51.08;28.70;;;;;;;-5.75;100.00;99216.52;1639183;86;21002;-68
2022/01/27 06:15:25;;;;;;;58.20;28.00;;;;;;;-5.72;100.00;99210.47;1664845;84;21865;-69
2022/01/27 06:17:52;;;;;;;50.85;28.17;;;;;;;-5.66;100.00;99212.47;1662649;83;20922;-69
2022/01/27 06:20:20;;;;;;;49.75;27.80;;;;;;;-5.57;100.00;99213.80;1665898;84;21446;-68
2022/01/27 06:22:58;;;;;;;35.68;20.75;;;;;;;-5.52;100.00;99206.30;1658663;84;21503;-68
2022/01/27 06:25:27;;;;;;;43.55;23.92;;;;;;;-5.47;100.00;99208.75;1667753;84;20990;-70
2022/01/27 06:27:53;;;;;;;46.40;26.52;;;;;;;-5.41;100.00;99212.55;1681359;83;21185;-68
2022/01/27 06:30:21;;;;;;;55.80;28.85;;;;;;;-5.38;100.00;99209.61;1661992;84;21446;-70
2022/01/27 06:32:48;;;;;;;65.72;32.98;;;;;;;-5.33;100.00;99199.48;1685285;85;20962;-70
2022/01/27 06:35:15;;;;;;;65.47;35.68;;;;;;;-5.29;100.00;99202.12;1668599;83;20966;-70
2022/01/27 06:37:44;;;;;;;75.08;43.20;;;;;;;-5.24;100.00;99197.22;1656055;85;20992;-69
2022/01/27 06:40:14;;;;;;;70.90;35.40;;;;;;;-5.18;100.00;99198.36;1656952;85;21138;-69
2022/01/27 06:42:44;;;;;;;141.73;82.72;;;;;;;-5.13;100.00;99193.95;1661402;83;21034;-69
2022/01/27 06:45:13;;;;;;;70.20;40.98;;;;;;;-5.07;100.00;99194.61;1655371;84;21006;-68
2022/01/27 06:47:39;;;;;;;114.60;69.25;;;;;;;-5.00;100.00;99191.67;1659380;83;21413;-68
2022/01/27 06:50:09;;;;;;;177.72;101.65;;;;;;;-4.97;100.00;99194.80;1661867;84;21495;-68
2022/01/27 06:52:35;;;;;;;140.73;75.95;;;;;;;-4.90;100.00;99191.52;1654983;84;21074;-68
2022/01/27 06:55:04;;;;;;;65.97;35.68;;;;;;;-4.87;100.00;99192.02;1651615;84;20948;-69
2022/01/27 06:57:33;;;;;;;136.47;84.62;;;;;;;-4.82;100.00;99192.34;1697552;83;20864;-69
2022/01/27 06:59:59;;;;;;;;;;;;;;;-4.75;100.00;99192.02;1681403;83;21405;-69
2022/01/27 07:02:26;;;;;;;81.25;47.43;;;;;;;-4.63;100.00;99195.60;1656139;85;20106;-71
2022/01/27 07:04:54;;;;;;;51.92;27.48;;;;;;;-4.52;100.00;99187.42;1655561;85;21158;-70
2022/01/27 07:07:21;;;;;;;64.30;36.25;;;;;;;-4.42;100.00;99178.08;1662314;85;21441;-69
2022/01/27 07:09:48;;;;;;;79.15;47.70;;;;;;;-4.39;100.00;99179.86;1685066;85;20911;-69
2022/01/27 07:12:15;;;;;;;91.75;52.03;;;;;;;-4.29;100.00;99182.80;1684763;83;20935;-68
2022/01/27 07:14:41;;;;;;;45.80;19.67;;;;;;;-4.21;100.00;99185.42;1684959;83;20935;-69
2022/01/27 07:17:08;;;;;;;54.38;30.20;;;;;;;-4.20;100.00;99180.48;1684084;83;21150;-70
2022/01/27 07:19:34;;;;;;;59.03;26.80;;;;;;;-4.23;100.00;99175.59;1684856;85;20904;-68
2022/01/27 07:22:01;;;;;;;42.88;24.27;;;;;;;-4.24;100.00;99175.25;1684666;85;20893;-71
2022/01/27 07:24:27;;;;;;;73.83;40.92;;;;;;;-4.22;100.00;99177.20;1675934;84;20972;-69
2022/01/27 07:26:54;;;;;;;54.42;28.55;;;;;;;-4.23;100.00;99180.83;1657228;85;20995;-70
2022/01/27 07:29:21;;;;;;;68.37;34.45;;;;;;;-4.24;100.00;99173.44;1673380;84;21115;-69
2022/01/27 07:31:47;;;;;;;56.25;31.25;;;;;;;-4.19;100.00;99179.02;1686450;83;21498;-69
2022/01/27 07:34:14;;;;;;;63.68;32.30;;;;;;;-4.13;100.00;99169.66;1675841;84;20936;-69
2022/01/27 07:36:41;;;;;;;59.67;26.93;;;;;;;-4.06;100.00;99161.45;1690202;84;20904;-68
2022/01/27 07:39:14;;;;;;;68.50;33.30;;;;;;;-4.09;100.00;99167.03;1689802;85;20991;-69
2022/01/27 07:41:39;;;;;;;73.47;35.83;;;;;;;-4.11;100.00;99161.95;1662860;84;21147;-68
2022/01/27 07:44:06;;;;;;;68.55;35.17;;;;;;;-4.08;100.00;99162.60;1655177;85;20898;-69
2022/01/27 07:46:34;;;;;;;;;;;;;;;-4.04;100.00;99158.64;1656130;86;20989;-68
2022/01/27 07:49:00;;;;;;;58.75;29.77;;;;;;;-3.99;100.00;99155.85;1653739;86;20502;-68
2022/01/27 07:51:28;;;;;;;49.08;26.02;;;;;;;-3.98;100.00;99154.04;1660378;85;20936;-68
2022/01/27 07:53:55;;;;;;;49.45;29.18;;;;;;;-3.92;100.00;99148.95;1661257;85;21141;-68
2022/01/27 07:56:23;;;;;;;46.80;25.13;;;;;;;-3.85;100.00;99150.37;1638217;85;20965;-68
2022/01/27 07:58:49;;;;;;;50.15;26.48;;;;;;;-3.80;100.00;99151.98;1634811;86;20999;-70
2022/01/27 08:01:16;;;;;;;52.60;26.27;;;;;;;-3.73;100.00;99147.69;1644871;86;21000;-68
2022/01/27 08:03:42;;;;;;;40.05;23.75;;;;;;;-3.64;100.00;99145.05;1646657;86;20945;-67
2022/01/27 08:06:09;;;;;;;41.13;24.82;;;;;;;-3.57;100.00;99148.12;1658799;86;21205;-68
2022/01/27 08:08:36;;;;;;;45.70;26.70;;;;;;;-3.55;100.00;99147.45;1666562;86;20952;-68
2022/01/27 08:11:02;;;;;;;47.35;27.70;;;;;;;-3.43;100.00;99141.80;1666643;86;20915;-70
2022/01/27 08:13:29;;;;;;;51.45;29.10;;;;;;;-3.24;100.00;99152.66;1666275;86;20885;-69
2022/01/27 08:15:56;;;;;;;70.17;36.28;;;;;;;-3.13;100.00;99144.88;1686397;85;21506;-67
2022/01/27 08:18:24;;;;;;;51.33;26.33;;;;;;;-2.99;100.00;99148.53;1659183;85;21136;-70
2022/01/27 08:20:52;;;;;;;45.03;25.15;;;;;;;-2.91;100.00;99148.49;1653708;86;20921;-70
2022/01/27 08:23:20;;;;;;;49.33;26.37;;;;;;;-2.89;100.00;99152.23;1644201;86;20987;-67
2022/01/27 08:25:58;;;;;;;47.90;27.93;;;;;;;-2.87;100.00;99143.69;1613645;89;20987;-69
2022/01/27 08:28:26;;;;;;;59.25;29.63;;;;;;;-2.89;100.00;99149.14;1611043;87;20965;-68
2022/01/27 08:30:50;;;;;;;54.30;32.65;;;;;;;-2.88;100.00;99141.56;1620043;88;21143;-70
2022/01/27 08:33:17;;;;;;;50.25;27.27;;;;;;;-2.85;100.00;99144.33;1621443;88;21520;-70
2022/01/27 08:35:43;;;;;;;;;;;;;;;-2.82;100.00;99149.22;1615613;86;20906;-68
2022/01/27 08:38:10;;;;;;;57.05;32.13;;;;;;;-2.80;100.00;99148.05;1645284;86;20123;-70
2022/01/27 08:40:37;;;;;;;58.70;34.08;;;;;;;-2.72;100.00;99139.78;1625910;87;21005;-68
2022/01/27 08:43:04;;;;;;;68.37;39.15;;;;;;;-2.61;100.00;99142.80;1640706;87;21133;-69
2022/01/27 08:45:31;;;;;;;71.77;38.45;;;;;;;-2.48;100.00;99131.66;1648084;87;20986;-68
2022/01/27 08:47:59;;;;;;;82.20;44.58;;;;;;;-2.41;100.00;99139.16;1649173;87;20905;-68
2022/01/27 08:50:26;;;;;;;73.28;42.93;;;;;;;-2.35;100.00;99133.70;1649205;87;21483;-67
2022/01/27 08:52:52;;;;;;;73.57;39.48;;;;;;;-2.25;100.00;99134.74;1657848;86;20940;-68
2022/01/27 08:55:21;;;;;;;85.92;43.38;;;;;;;-2.14;100.00;99130.33;1634009;86;21054;-71
2022/01/27 08:57:48;;;;;;;87.88;46.37;;;;;;;-2.04;100.00;99129.55;1653925;86;20924;-69
2022/01/27 09:00:16;;;;;;;75.55;43.55;;;;;;;-1.91;100.00;99133.34;1657246;86;20901;-68
2022/01/27 09:02:42;;;;;;;73.35;41.80;;;;;;;-1.87;100.00;99135.94;1665901;86;21447;-72
2022/01/27 09:05:09;;;;;;;75.80;40.03;;;;;;;-1.79;100.00;99132.71;1665858;86;20921;-69
2022/01/27 09:07:37;;;;;;;70.10;40.63;;;;;;;-1.66;100.00;99131.23;1665573;86;21120;-67
2022/01/27 09:10:06;;;;;;;68.70;39.70;;;;;;;-1.52;100.00;99127.25;1665605;86;21471;-69
2022/01/27 09:12:32;;;;;;;75.65;40.95;;;;;;;-1.41;100.00;99128.56;1665750;86;20913;-69
2022/01/27 09:15:02;;;;;;;69.77;41.45;;;;;;;-1.38;100.00;99129.50;1665830;86;20921;-69
2022/01/27 09:17:38;;;;;;;72.72;33.63;;;;;;;-1.28;100.00;99123.13;1665888;85;20877;-68
2022/01/27 09:20:00;;;;;;;;;;;;;;;-1.28;100.00;99111.27;1666718;85;21186;-70
2022/01/27 09:22:27;;;;;;;64.82;34.55;;;;;;;-1.11;100.00;99121.87;1666166;86;20100;-69
2022/01/27 09:24:58;;;;;;;66.45;38.33;;;;;;;-1.04;100.00;99121.43;1665529;84;20892;-69
2022/01/27 09:27:24;;;;;;;59.48;33.40;;;;;;;-1.00;100.00;99119.25;1665717;86;20941;-69
2022/01/27 09:29:52;;;;;;;132.60;65.10;;;;;;;-0.99;100.00;99118.23;1662952;83;21548;-66
2022/01/27 09:32:19;;;;;;;86.78;47.73;;;;;;;-1.04;100.00;99121.94;1655706;86;21143;-66
2022/01/27 09:34:46;;;;;;;75.42;44.60;;;;;;;-1.09;100.00;99125.94;1655472;86;20989;-67
2022/01/27 09:37:14;;;;;;;69.50;41.33;;;;;;;-1.06;100.00;99127.38;1637839;86;20936;-67
2022/01/27 09:39:42;;;;;;;82.02;49.53;;;;;;;-0.97;100.00;99117.55;1669230;84;20908;-67
2022/01/27 09:42:09;;;;;;;87.40;47.17;;;;;;;-0.91;100.00;99122.88;1699782;84;21492;-67
2022/01/27 09:44:37;;;;;;;125.42;72.30;;;;;;;-0.83;100.00;99115.34;1699669;84;21091;-67
2022/01/27 09:47:07;;;;;;;76.90;43.73;;;;;;;-0.80;100.00;99121.53;1699628;84;28613;-68
2022/01/27 09:49:42;;;;;;;92.17;51.95;;;;;;;-0.76;100.00;99108.78;1699750;84;20940;-66
2022/01/27 09:52:04;;;;;;;117.42;59.33;;;;;;;-0.70;100.00;99109.34;1697846;84;20943;-67
2022/01/27 09:54:31;;;;;;;152.22;82.57;;;;;;;-0.64;100.00;99101.97;1694333;84;20941;-66
2022/01/27 09:56:58;;;;;;;98.97;53.63;;;;;;;-0.50;100.00;99101.06;1694123;84;21133;-68
2022/01/27 09:59:25;;;;;;;226.42;125.25;;;;;;;-0.23;100.00;99090.67;1694087;84;20921;-66
2022/01/27 10:01:57;;;;;;;273.30;148.35;;;;;;;-0.07;100.00;99098.78;1693340;84;20858;-67
2022/01/27 10:04:58;;;;;;;227.55;119.35;;;;;;;0.13;100.00;99097.55;1699468;83;20907;-68
2022/01/27 10:07:31;;;;;;;121.33;67.15;;;;;;;0.30;100.00;99098.83;1699733;84;20908;-67
2022/01/27 10:10:12;;;;;;;70.28;39.83;;;;;;;0.27;100.00;99093.95;1672875;84;21103;-67
2022/01/27 10:12:49;;;;;;;56.25;34.35;;;;;;;0.32;100.00;99098.12;1699554;84;20927;-69
2022/01/27 10:15:21;;;;;;;73.35;42.13;;;;;;;0.39;100.00;99097.64;1699884;84;20939;-66
2022/01/27 10:18:14;;;;;;;78.15;47.00;;;;;;;0.60;100.00;99096.66;1699319;84;20935;-68
2022/01/27 10:20:51;;;;;;;45.33;29.12;;;;;;;0.75;100.00;99098.31;1698572;83;20916;-67
2022/01/27 10:23:23;;;;;;;46.77;30.70;;;;;;;0.89;100.00;99094.67;1653782;86;21836;-64
2022/01/27 10:25:54;;;;;;;36.45;24.35;;;;;;;1.00;100.00;99091.93;1653159;86;20981;-68
2022/01/27 10:28:48;;;;;;;25.82;18.57;;;;;;;1.16;100.00;99090.21;1653655;86;20953;-68
2022/01/27 10:31:19;;;;;;;24.37;18.55;;;;;;;1.16;100.00;99086.77;1627088;88;20988;-66
2022/01/27 10:33:56;;;;;;;24.30;17.52;;;;;;;1.12;100.00;99087.66;1626991;87;21003;-66
2022/01/27 10:36:33;;;;;;;27.58;19.27;;;;;;;0.97;100.00;99080.45;1643726;84;21881;-68
2022/01/27 10:39:03;;;;;;;23.30;16.87;;;;;;;0.94;100.00;99078.22;1657842;86;20913;-69
2022/01/27 10:41:33;;;;;;;21.17;15.45;;;;;;;0.89;100.00;99076.70;1661992;84;21016;-67
2022/01/27 10:44:15;;;;;;;21.87;16.55;;;;;;;0.94;100.00;99071.09;1694406;84;20897;-65
2022/01/27 10:47:09;;;;;;;23.12;17.50;;;;;;;1.00;100.00;99077.39;1699853;84;20971;-67
2022/01/27 10:49:37;;;;;;;26.27;18.90;;;;;;;1.00;100.00;99067.62;1697351;84;21148;-67
2022/01/27 10:52:12;;;;;;;25.40;16.12;;;;;;;1.01;100.00;99067.14;1657534;84;20958;-67
2022/01/27 10:54:48;;;;;;;18.40;13.13;;;;;;;1.01;100.00;99063.18;1649958;85;20933;-68
2022/01/27 10:57:14;;;;;;;22.27;15.98;;;;;;;0.91;100.00;99066.23;1645377;85;21020;-67
2022/01/27 10:59:42;;;;;;;18.67;14.65;;;;;;;0.97;100.00;99068.55;1651557;85;20993;-66
2022/01/27 11:02:14;;;;;;;18.20;13.43;;;;;;;0.91;100.00;99066.71;1646322;85;20937;-67
2022/01/27 11:04:43;;;;;;;18.23;12.45;;;;;;;0.87;100.00;99069.47;1642958;85;20966;-67
2022/01/27 11:07:12;;;;;;;47.73;33.92;;;;;;;0.79;100.00;99065.20;1650961;85;20964;-69
2022/01/27 11:09:42;;;;;;;33.65;22.17;;;;;;;0.74;100.00;99068.96;1651952;85;20945;-67
2022/01/27 11:12:15;;;;;;;20.15;14.47;;;;;;;0.74;100.00;99071.60;1651051;85;20947;-67
2022/01/27 11:14:41;;;;;;;16.35;12.73;;;;;;;0.72;100.00;99070.47;1654097;85;21165;-67
2022/01/27 11:17:15;;;;;;;19.10;14.07;;;;;;;0.66;100.00;99062.53;1655440;85;21020;-67
2022/01/27 11:27:41;;;;;;;15.23;12.15;;;;;;;0.60;100.00;99062.32;1645511;85;21174;-68
2022/01/27 11:30:33;;;;;;;47.38;23.02;;;;;;;0.54;100.00;99055.22;1645566;85;20969;-66
2022/01/27 11:33:09;;;;;;;63.48;30.00;;;;;;;0.50;100.00;99065.06;1651538;85;20977;-65
2022/01/27 11:35:36;;;;;;;36.35;18.65;;;;;;;0.48;100.00;99073.17;1664717;85;21562;-68
2022/01/27 11:38:05;;;;;;;28.50;18.12;;;;;;;0.43;100.00;99062.39;1657048;85;20928;-65
2022/01/27 11:40:39;;;;;;;69.70;30.97;;;;;;;0.41;100.00;99066.55;1662953;85;21111;-64
2022/01/27 11:43:19;;;;;;;20.88;13.55;;;;;;;0.40;100.00;99064.13;1650238;85;20995;-65
2022/01/27 11:45:48;;;;;;;17.87;13.68;;;;;;;0.37;100.00;99065.84;1647194;85;21040;-66
2022/01/27 11:48:25;;;;;;;23.75;15.93;;;;;;;0.33;100.00;99054.86;1649473;85;20981;-66
2022/01/27 11:51:10;;;;;;;42.85;23.45;;;;;;;0.35;100.00;99054.67;1644868;85;21045;-65
2022/01/27 11:53:49;;;;;;;32.17;19.65;;;;;;;0.35;100.00;99059.44;1649016;85;21966;-67
2022/01/27 11:56:33;;;;;;;20.60;15.13;;;;;;;0.36;100.00;99049.69;1655188;85;20981;-67
2022/01/27 11:59:03;;;;;;;30.57;18.15;;;;;;;0.31;100.00;99053.43;1676522;85;20972;-67
2022/01/27 12:01:34;;;;;;;18.48;14.40;;;;;;;0.33;100.00;99056.17;1666605;85;20973;-67
2022/01/27 12:04:07;;;;;;;29.90;18.90;;;;;;;0.35;100.00;99055.99;1651139;85;20959;-66